sensor_id;sensor_type;location;lat;lon;timestamp;P1;durP1;ratioP1;P2;durP2;ratioP2
67049;SDS011;53955;52.442;13.284;2023-06-22T00:01:12;11.95;;;8.23;;
67049;SDS011;53955;52.442;13.284;2023-06-22T00:03:39;11.10;;;8.07;;
67049;SDS011;53955;52.442;13.284;2023-06-22T00:06:05;11.27;;;8.23;;
67049;SDS011;53955;52.442;13.284;2023-06-22T00:08:32;10.60;;;8.00;;
67049;SDS011;53955;52.442;13.284;2023-06-22T00:10:58;10.85;;;7.93;;
67049;SDS011;53955;52.442;13.284;2023-06-22T00:13:25;12.07;;;7.68;;
67049;SDS011;53955;52.442;13.284;2023-06-22T00:15:52;8.98;;;7.47;;
67049;SDS011;53955;52.442;13.284;2023-06-22T00:18:20;11.27;;;8.05;;
67049;SDS011;53955;52.442;13.284;2023-06-22T00:20:46;12.00;;;7.30;;
67049;SDS011;53955;52.442;13.284;2023-06-22T00:23:13;9.07;;;7.40;;
67049;SDS011;53955;52.442;13.284;2023-06-22T00:25:42;11.85;;;7.85;;
67049;SDS011;53955;52.442;13.284;2023-06-22T00:28:09;11.50;;;7.15;;
67049;SDS011;53955;52.442;13.284;2023-06-22T00:30:35;8.48;;;6.60;;
67049;SDS011;53955;52.442;13.284;2023-06-22T00:33:02;8.50;;;6.80;;
67049;SDS011;53955;52.442;13.284;2023-06-22T00:35:31;10.07;;;6.88;;
67049;SDS011;53955;52.442;13.284;2023-06-22T00:37:59;8.13;;;6.78;;
67049;SDS011;53955;52.442;13.284;2023-06-22T00:40:26;8.80;;;6.55;;
67049;SDS011;53955;52.442;13.284;2023-06-22T00:42:53;9.32;;;6.60;;
67049;SDS011;53955;52.442;13.284;2023-06-22T00:45:21;9.05;;;6.68;;
67049;SDS011;53955;52.442;13.284;2023-06-22T00:47:48;9.48;;;6.85;;
67049;SDS011;53955;52.442;13.284;2023-06-22T00:50:16;7.93;;;6.45;;
67049;SDS011;53955;52.442;13.284;2023-06-22T00:52:48;9.02;;;6.45;;
67049;SDS011;53955;52.442;13.284;2023-06-22T00:55:18;7.65;;;5.90;;
67049;SDS011;53955;52.442;13.284;2023-06-22T00:57:45;10.02;;;6.40;;
67049;SDS011;53955;52.442;13.284;2023-06-22T01:00:12;7.05;;;6.18;;
67049;SDS011;53955;52.442;13.284;2023-06-22T01:02:44;8.63;;;6.93;;
67049;SDS011;53955;52.442;13.284;2023-06-22T01:05:11;11.77;;;6.30;;
67049;SDS011;53955;52.442;13.284;2023-06-22T01:07:39;8.52;;;6.80;;
67049;SDS011;53955;52.442;13.284;2023-06-22T01:10:14;7.85;;;6.10;;
67049;SDS011;53955;52.442;13.284;2023-06-22T01:12:48;8.00;;;6.07;;
67049;SDS011;53955;52.442;13.284;2023-06-22T01:15:18;9.35;;;7.05;;
67049;SDS011;53955;52.442;13.284;2023-06-22T01:17:49;8.73;;;6.78;;
67049;SDS011;53955;52.442;13.284;2023-06-22T01:20:18;8.88;;;7.30;;
67049;SDS011;53955;52.442;13.284;2023-06-22T01:22:53;8.77;;;7.15;;
67049;SDS011;53955;52.442;13.284;2023-06-22T01:25:39;11.05;;;6.95;;
67049;SDS011;53955;52.442;13.284;2023-06-22T01:28:14;10.27;;;6.50;;
67049;SDS011;53955;52.442;13.284;2023-06-22T01:30:50;8.52;;;6.35;;
67049;SDS011;53955;52.442;13.284;2023-06-22T01:33:28;11.85;;;6.97;;
67049;SDS011;53955;52.442;13.284;2023-06-22T01:35:57;9.25;;;6.85;;
67049;SDS011;53955;52.442;13.284;2023-06-22T01:38:25;9.90;;;7.20;;
67049;SDS011;53955;52.442;13.284;2023-06-22T01:40:53;9.10;;;7.03;;
67049;SDS011;53955;52.442;13.284;2023-06-22T01:43:25;11.68;;;7.00;;
67049;SDS011;53955;52.442;13.284;2023-06-22T01:45:54;10.27;;;7.53;;
67049;SDS011;53955;52.442;13.284;2023-06-22T01:48:21;10.40;;;7.10;;
67049;SDS011;53955;52.442;13.284;2023-06-22T01:50:50;7.40;;;6.60;;
67049;SDS011;53955;52.442;13.284;2023-06-22T01:53:17;9.48;;;6.75;;
67049;SDS011;53955;52.442;13.284;2023-06-22T01:55:44;9.57;;;6.88;;
67049;SDS011;53955;52.442;13.284;2023-06-22T01:58:10;9.68;;;7.30;;
67049;SDS011;53955;52.442;13.284;2023-06-22T02:00:38;11.07;;;7.63;;
67049;SDS011;53955;52.442;13.284;2023-06-22T02:03:13;9.73;;;7.60;;
67049;SDS011;53955;52.442;13.284;2023-06-22T02:05:46;8.90;;;7.55;;
67049;SDS011;53955;52.442;13.284;2023-06-22T02:08:17;8.48;;;6.55;;
67049;SDS011;53955;52.442;13.284;2023-06-22T02:10:46;13.10;;;7.75;;
67049;SDS011;53955;52.442;13.284;2023-06-22T02:13:14;10.18;;;7.28;;
67049;SDS011;53955;52.442;13.284;2023-06-22T02:15:41;11.20;;;7.57;;
67049;SDS011;53955;52.442;13.284;2023-06-22T02:18:08;10.77;;;8.00;;
67049;SDS011;53955;52.442;13.284;2023-06-22T02:20:37;11.57;;;7.88;;
67049;SDS011;53955;52.442;13.284;2023-06-22T02:23:04;11.48;;;9.00;;
67049;SDS011;53955;52.442;13.284;2023-06-22T02:25:31;10.18;;;8.13;;
67049;SDS011;53955;52.442;13.284;2023-06-22T02:27:58;12.40;;;8.98;;
67049;SDS011;53955;52.442;13.284;2023-06-22T02:30:24;12.80;;;9.02;;
67049;SDS011;53955;52.442;13.284;2023-06-22T02:32:51;10.88;;;8.73;;
67049;SDS011;53955;52.442;13.284;2023-06-22T02:35:23;12.45;;;9.15;;
67049;SDS011;53955;52.442;13.284;2023-06-22T02:37:51;12.18;;;9.57;;
67049;SDS011;53955;52.442;13.284;2023-06-22T02:40:18;13.43;;;9.55;;
67049;SDS011;53955;52.442;13.284;2023-06-22T02:42:44;13.32;;;9.77;;
67049;SDS011;53955;52.442;13.284;2023-06-22T02:45:11;13.48;;;9.43;;
67049;SDS011;53955;52.442;13.284;2023-06-22T02:47:37;14.38;;;9.52;;
67049;SDS011;53955;52.442;13.284;2023-06-22T02:50:04;13.80;;;8.90;;
67049;SDS011;53955;52.442;13.284;2023-06-22T02:52:31;16.70;;;10.82;;
67049;SDS011;53955;52.442;13.284;2023-06-22T02:55:00;12.68;;;9.55;;
67049;SDS011;53955;52.442;13.284;2023-06-22T02:57:26;14.75;;;10.65;;
67049;SDS011;53955;52.442;13.284;2023-06-22T02:59:53;11.10;;;8.77;;
67049;SDS011;53955;52.442;13.284;2023-06-22T03:02:20;12.25;;;9.68;;
67049;SDS011;53955;52.442;13.284;2023-06-22T03:04:46;12.95;;;10.02;;
67049;SDS011;53955;52.442;13.284;2023-06-22T03:07:14;12.00;;;9.75;;
67049;SDS011;53955;52.442;13.284;2023-06-22T03:09:42;13.73;;;9.48;;
67049;SDS011;53955;52.442;13.284;2023-06-22T03:12:10;13.77;;;10.98;;
67049;SDS011;53955;52.442;13.284;2023-06-22T03:14:37;13.45;;;9.95;;
67049;SDS011;53955;52.442;13.284;2023-06-22T03:17:03;12.77;;;9.63;;
67049;SDS011;53955;52.442;13.284;2023-06-22T03:19:31;12.57;;;10.40;;
67049;SDS011;53955;52.442;13.284;2023-06-22T03:21:58;12.77;;;9.68;;
67049;SDS011;53955;52.442;13.284;2023-06-22T03:24:25;11.43;;;9.50;;
67049;SDS011;53955;52.442;13.284;2023-06-22T03:26:54;14.60;;;10.60;;
67049;SDS011;53955;52.442;13.284;2023-06-22T03:29:22;14.95;;;9.98;;
67049;SDS011;53955;52.442;13.284;2023-06-22T03:31:50;13.13;;;10.77;;
67049;SDS011;53955;52.442;13.284;2023-06-22T03:34:16;15.30;;;10.35;;
67049;SDS011;53955;52.442;13.284;2023-06-22T03:36:43;11.63;;;9.52;;
67049;SDS011;53955;52.442;13.284;2023-06-22T03:39:11;11.73;;;9.30;;
67049;SDS011;53955;52.442;13.284;2023-06-22T03:41:37;13.32;;;8.70;;
67049;SDS011;53955;52.442;13.284;2023-06-22T03:44:04;10.98;;;8.85;;
67049;SDS011;53955;52.442;13.284;2023-06-22T03:46:32;13.00;;;8.52;;
67049;SDS011;53955;52.442;13.284;2023-06-22T03:48:58;10.35;;;7.97;;
67049;SDS011;53955;52.442;13.284;2023-06-22T03:51:25;14.40;;;9.30;;
67049;SDS011;53955;52.442;13.284;2023-06-22T03:53:51;10.55;;;8.05;;
67049;SDS011;53955;52.442;13.284;2023-06-22T03:56:18;12.95;;;8.65;;
67049;SDS011;53955;52.442;13.284;2023-06-22T03:58:46;9.75;;;8.50;;
67049;SDS011;53955;52.442;13.284;2023-06-22T04:01:12;11.13;;;8.77;;
67049;SDS011;53955;52.442;13.284;2023-06-22T04:03:40;10.73;;;8.38;;
67049;SDS011;53955;52.442;13.284;2023-06-22T04:06:07;12.18;;;8.30;;
67049;SDS011;53955;52.442;13.284;2023-06-22T04:08:34;15.02;;;8.32;;
67049;SDS011;53955;52.442;13.284;2023-06-22T04:11:00;11.27;;;8.02;;
67049;SDS011;53955;52.442;13.284;2023-06-22T04:13:27;11.02;;;8.15;;
67049;SDS011;53955;52.442;13.284;2023-06-22T04:15:53;11.35;;;8.05;;
67049;SDS011;53955;52.442;13.284;2023-06-22T04:18:20;12.13;;;8.50;;
67049;SDS011;53955;52.442;13.284;2023-06-22T04:20:48;16.15;;;8.15;;
67049;SDS011;53955;52.442;13.284;2023-06-22T04:23:14;13.77;;;10.00;;
67049;SDS011;53955;52.442;13.284;2023-06-22T04:25:41;9.52;;;8.00;;
67049;SDS011;53955;52.442;13.284;2023-06-22T04:28:08;12.43;;;8.07;;
67049;SDS011;53955;52.442;13.284;2023-06-22T04:30:37;12.15;;;8.68;;
67049;SDS011;53955;52.442;13.284;2023-06-22T04:33:11;12.10;;;8.70;;
67049;SDS011;53955;52.442;13.284;2023-06-22T04:35:37;10.90;;;8.52;;
67049;SDS011;53955;52.442;13.284;2023-06-22T04:38:07;12.50;;;8.10;;
67049;SDS011;53955;52.442;13.284;2023-06-22T04:40:34;9.15;;;7.65;;
67049;SDS011;53955;52.442;13.284;2023-06-22T04:43:00;10.98;;;8.90;;
67049;SDS011;53955;52.442;13.284;2023-06-22T04:45:28;10.52;;;7.90;;
67049;SDS011;53955;52.442;13.284;2023-06-22T04:47:55;12.20;;;8.82;;
67049;SDS011;53955;52.442;13.284;2023-06-22T04:50:21;10.65;;;8.20;;
67049;SDS011;53955;52.442;13.284;2023-06-22T04:52:48;12.15;;;8.73;;
67049;SDS011;53955;52.442;13.284;2023-06-22T04:55:17;12.05;;;7.57;;
67049;SDS011;53955;52.442;13.284;2023-06-22T04:57:44;12.07;;;7.85;;
67049;SDS011;53955;52.442;13.284;2023-06-22T05:00:14;10.65;;;7.00;;
67049;SDS011;53955;52.442;13.284;2023-06-22T05:02:42;10.50;;;7.85;;
67049;SDS011;53955;52.442;13.284;2023-06-22T05:05:10;8.23;;;7.07;;
67049;SDS011;53955;52.442;13.284;2023-06-22T05:07:38;10.10;;;7.50;;
67049;SDS011;53955;52.442;13.284;2023-06-22T05:10:07;11.18;;;6.93;;
67049;SDS011;53955;52.442;13.284;2023-06-22T05:12:36;10.43;;;6.93;;
67049;SDS011;53955;52.442;13.284;2023-06-22T05:15:03;10.13;;;6.65;;
67049;SDS011;53955;52.442;13.284;2023-06-22T05:17:30;7.90;;;5.97;;
67049;SDS011;53955;52.442;13.284;2023-06-22T05:19:56;8.57;;;6.25;;
67049;SDS011;53955;52.442;13.284;2023-06-22T05:22:23;8.82;;;6.05;;
67049;SDS011;53955;52.442;13.284;2023-06-22T05:24:49;10.27;;;6.28;;
67049;SDS011;53955;52.442;13.284;2023-06-22T05:27:16;8.40;;;5.75;;
67049;SDS011;53955;52.442;13.284;2023-06-22T05:29:44;7.22;;;5.32;;
67049;SDS011;53955;52.442;13.284;2023-06-22T05:32:10;7.45;;;5.47;;
67049;SDS011;53955;52.442;13.284;2023-06-22T05:34:37;7.95;;;5.40;;
67049;SDS011;53955;52.442;13.284;2023-06-22T05:37:04;9.65;;;6.07;;
67049;SDS011;53955;52.442;13.284;2023-06-22T05:39:31;9.20;;;5.53;;
67049;SDS011;53955;52.442;13.284;2023-06-22T05:41:58;8.57;;;5.07;;
67049;SDS011;53955;52.442;13.284;2023-06-22T05:44:24;8.98;;;5.57;;
67049;SDS011;53955;52.442;13.284;2023-06-22T05:46:52;7.93;;;5.50;;
67049;SDS011;53955;52.442;13.284;2023-06-22T05:49:19;7.93;;;5.55;;
67049;SDS011;53955;52.442;13.284;2023-06-22T05:51:47;9.40;;;5.95;;
67049;SDS011;53955;52.442;13.284;2023-06-22T05:54:13;7.72;;;6.10;;
67049;SDS011;53955;52.442;13.284;2023-06-22T05:56:42;8.45;;;5.85;;
67049;SDS011;53955;52.442;13.284;2023-06-22T05:59:09;8.77;;;6.22;;
67049;SDS011;53955;52.442;13.284;2023-06-22T06:01:35;9.38;;;6.20;;
67049;SDS011;53955;52.442;13.284;2023-06-22T06:04:03;7.97;;;5.25;;
67049;SDS011;53955;52.442;13.284;2023-06-22T06:06:30;7.32;;;6.05;;
67049;SDS011;53955;52.442;13.284;2023-06-22T06:08:57;7.50;;;5.57;;
67049;SDS011;53955;52.442;13.284;2023-06-22T06:11:24;7.97;;;5.80;;
67049;SDS011;53955;52.442;13.284;2023-06-22T06:13:51;8.70;;;5.60;;
67049;SDS011;53955;52.442;13.284;2023-06-22T06:16:17;8.82;;;4.75;;
67049;SDS011;53955;52.442;13.284;2023-06-22T06:18:44;10.45;;;4.97;;
67049;SDS011;53955;52.442;13.284;2023-06-22T06:21:12;8.02;;;5.45;;
67049;SDS011;53955;52.442;13.284;2023-06-22T06:23:38;6.85;;;5.28;;
67049;SDS011;53955;52.442;13.284;2023-06-22T06:26:05;6.50;;;4.72;;
67049;SDS011;53955;52.442;13.284;2023-06-22T06:28:32;9.20;;;5.45;;
67049;SDS011;53955;52.442;13.284;2023-06-22T06:30:58;8.40;;;4.70;;
67049;SDS011;53955;52.442;13.284;2023-06-22T06:33:25;8.65;;;5.40;;
67049;SDS011;53955;52.442;13.284;2023-06-22T06:35:51;6.32;;;4.03;;
67049;SDS011;53955;52.442;13.284;2023-06-22T06:38:22;6.95;;;4.65;;
67049;SDS011;53955;52.442;13.284;2023-06-22T06:40:48;5.68;;;3.67;;
67049;SDS011;53955;52.442;13.284;2023-06-22T06:43:15;6.38;;;4.30;;
67049;SDS011;53955;52.442;13.284;2023-06-22T06:45:41;12.00;;;3.70;;
67049;SDS011;53955;52.442;13.284;2023-06-22T06:48:08;5.18;;;3.55;;
67049;SDS011;53955;52.442;13.284;2023-06-22T06:50:35;5.35;;;4.10;;
67049;SDS011;53955;52.442;13.284;2023-06-22T06:53:01;8.60;;;4.00;;
67049;SDS011;53955;52.442;13.284;2023-06-22T06:55:29;8.27;;;3.60;;
67049;SDS011;53955;52.442;13.284;2023-06-22T06:57:57;7.07;;;3.95;;
67049;SDS011;53955;52.442;13.284;2023-06-22T07:00:24;7.13;;;3.85;;
67049;SDS011;53955;52.442;13.284;2023-06-22T07:02:51;5.93;;;3.90;;
67049;SDS011;53955;52.442;13.284;2023-06-22T07:05:18;7.18;;;3.53;;
67049;SDS011;53955;52.442;13.284;2023-06-22T07:07:45;7.38;;;3.33;;
67049;SDS011;53955;52.442;13.284;2023-06-22T07:10:11;5.10;;;3.17;;
67049;SDS011;53955;52.442;13.284;2023-06-22T07:12:39;6.88;;;3.67;;
67049;SDS011;53955;52.442;13.284;2023-06-22T07:15:06;5.35;;;3.42;;
67049;SDS011;53955;52.442;13.284;2023-06-22T07:17:35;5.85;;;3.88;;
67049;SDS011;53955;52.442;13.284;2023-06-22T07:20:02;6.35;;;3.00;;
67049;SDS011;53955;52.442;13.284;2023-06-22T07:22:34;4.13;;;2.65;;
67049;SDS011;53955;52.442;13.284;2023-06-22T07:25:00;5.63;;;2.83;;
67049;SDS011;53955;52.442;13.284;2023-06-22T07:27:30;3.05;;;2.17;;
67049;SDS011;53955;52.442;13.284;2023-06-22T07:30:02;6.22;;;2.47;;
67049;SDS011;53955;52.442;13.284;2023-06-22T07:32:29;5.85;;;2.67;;
67049;SDS011;53955;52.442;13.284;2023-06-22T07:34:55;3.90;;;2.42;;
67049;SDS011;53955;52.442;13.284;2023-06-22T07:37:22;7.70;;;2.58;;
67049;SDS011;53955;52.442;13.284;2023-06-22T07:39:49;4.90;;;2.88;;
67049;SDS011;53955;52.442;13.284;2023-06-22T07:42:18;6.13;;;2.85;;
67049;SDS011;53955;52.442;13.284;2023-06-22T07:44:45;3.88;;;2.60;;
67049;SDS011;53955;52.442;13.284;2023-06-22T07:47:13;5.32;;;2.60;;
67049;SDS011;53955;52.442;13.284;2023-06-22T07:49:39;4.55;;;2.50;;
67049;SDS011;53955;52.442;13.284;2023-06-22T07:52:06;4.85;;;2.30;;
67049;SDS011;53955;52.442;13.284;2023-06-22T07:54:33;4.20;;;2.65;;
67049;SDS011;53955;52.442;13.284;2023-06-22T07:56:59;5.65;;;2.60;;
67049;SDS011;53955;52.442;13.284;2023-06-22T07:59:26;4.57;;;2.40;;
67049;SDS011;53955;52.442;13.284;2023-06-22T08:01:52;3.83;;;2.47;;
67049;SDS011;53955;52.442;13.284;2023-06-22T08:04:21;4.70;;;2.85;;
67049;SDS011;53955;52.442;13.284;2023-06-22T08:06:48;6.20;;;2.75;;
67049;SDS011;53955;52.442;13.284;2023-06-22T08:09:15;4.32;;;2.40;;
67049;SDS011;53955;52.442;13.284;2023-06-22T08:11:41;5.60;;;2.90;;
67049;SDS011;53955;52.442;13.284;2023-06-22T08:14:08;3.75;;;2.50;;
67049;SDS011;53955;52.442;13.284;2023-06-22T08:16:34;5.13;;;2.67;;
67049;SDS011;53955;52.442;13.284;2023-06-22T08:19:01;5.75;;;2.63;;
67049;SDS011;53955;52.442;13.284;2023-06-22T08:21:29;3.22;;;2.22;;
67049;SDS011;53955;52.442;13.284;2023-06-22T08:23:55;4.03;;;2.53;;
67049;SDS011;53955;52.442;13.284;2023-06-22T08:26:22;3.90;;;2.35;;
67049;SDS011;53955;52.442;13.284;2023-06-22T08:28:49;4.43;;;2.75;;
67049;SDS011;53955;52.442;13.284;2023-06-22T08:31:16;4.50;;;2.47;;
67049;SDS011;53955;52.442;13.284;2023-06-22T08:33:42;3.95;;;2.38;;
67049;SDS011;53955;52.442;13.284;2023-06-22T08:36:10;7.38;;;2.63;;
67049;SDS011;53955;52.442;13.284;2023-06-22T08:38:39;5.50;;;2.55;;
67049;SDS011;53955;52.442;13.284;2023-06-22T08:41:06;3.78;;;2.45;;
67049;SDS011;53955;52.442;13.284;2023-06-22T08:43:33;4.13;;;2.88;;
67049;SDS011;53955;52.442;13.284;2023-06-22T08:45:59;5.20;;;2.78;;
67049;SDS011;53955;52.442;13.284;2023-06-22T08:48:27;3.47;;;2.55;;
67049;SDS011;53955;52.442;13.284;2023-06-22T08:50:54;3.38;;;2.17;;
67049;SDS011;53955;52.442;13.284;2023-06-22T08:53:20;3.92;;;2.13;;
67049;SDS011;53955;52.442;13.284;2023-06-22T08:55:48;3.80;;;2.35;;
67049;SDS011;53955;52.442;13.284;2023-06-22T08:58:15;4.00;;;2.50;;
67049;SDS011;53955;52.442;13.284;2023-06-22T09:00:43;3.88;;;2.60;;
67049;SDS011;53955;52.442;13.284;2023-06-22T09:03:09;4.82;;;2.60;;
67049;SDS011;53955;52.442;13.284;2023-06-22T09:05:37;4.55;;;2.88;;
67049;SDS011;53955;52.442;13.284;2023-06-22T09:08:03;4.28;;;2.75;;
67049;SDS011;53955;52.442;13.284;2023-06-22T09:10:30;4.30;;;2.78;;
67049;SDS011;53955;52.442;13.284;2023-06-22T09:12:58;4.75;;;2.72;;
67049;SDS011;53955;52.442;13.284;2023-06-22T09:15:24;4.93;;;2.78;;
67049;SDS011;53955;52.442;13.284;2023-06-22T09:17:51;5.32;;;2.97;;
67049;SDS011;53955;52.442;13.284;2023-06-22T09:20:19;5.32;;;2.75;;
67049;SDS011;53955;52.442;13.284;2023-06-22T09:22:46;4.53;;;2.90;;
67049;SDS011;53955;52.442;13.284;2023-06-22T09:25:12;4.65;;;2.90;;
67049;SDS011;53955;52.442;13.284;2023-06-22T09:27:39;4.97;;;2.78;;
67049;SDS011;53955;52.442;13.284;2023-06-22T09:30:07;4.32;;;2.80;;
67049;SDS011;53955;52.442;13.284;2023-06-22T09:32:34;4.95;;;2.90;;
67049;SDS011;53955;52.442;13.284;2023-06-22T09:35:01;3.55;;;2.75;;
67049;SDS011;53955;52.442;13.284;2023-06-22T09:37:31;5.32;;;2.70;;
67049;SDS011;53955;52.442;13.284;2023-06-22T09:39:58;4.75;;;2.72;;
67049;SDS011;53955;52.442;13.284;2023-06-22T09:42:24;4.85;;;3.28;;
67049;SDS011;53955;52.442;13.284;2023-06-22T09:44:51;4.47;;;3.20;;
67049;SDS011;53955;52.442;13.284;2023-06-22T09:47:19;6.28;;;3.33;;
67049;SDS011;53955;52.442;13.284;2023-06-22T09:49:45;4.15;;;2.83;;
67049;SDS011;53955;52.442;13.284;2023-06-22T09:52:12;5.20;;;3.53;;
67049;SDS011;53955;52.442;13.284;2023-06-22T09:54:39;4.50;;;2.90;;
67049;SDS011;53955;52.442;13.284;2023-06-22T09:57:05;4.22;;;3.03;;
67049;SDS011;53955;52.442;13.284;2023-06-22T09:59:32;4.38;;;3.15;;
67049;SDS011;53955;52.442;13.284;2023-06-22T10:01:59;4.30;;;3.08;;
67049;SDS011;53955;52.442;13.284;2023-06-22T10:04:26;4.85;;;3.08;;
67049;SDS011;53955;52.442;13.284;2023-06-22T10:06:53;4.07;;;2.75;;
67049;SDS011;53955;52.442;13.284;2023-06-22T10:09:20;5.35;;;3.40;;
67049;SDS011;53955;52.442;13.284;2023-06-22T10:11:46;4.78;;;2.92;;
67049;SDS011;53955;52.442;13.284;2023-06-22T10:14:13;6.57;;;2.97;;
67049;SDS011;53955;52.442;13.284;2023-06-22T10:16:39;3.95;;;2.65;;
67049;SDS011;53955;52.442;13.284;2023-06-22T10:19:06;7.97;;;2.85;;
67049;SDS011;53955;52.442;13.284;2023-06-22T10:21:34;4.45;;;2.83;;
67049;SDS011;53955;52.442;13.284;2023-06-22T10:24:00;6.43;;;3.10;;
67049;SDS011;53955;52.442;13.284;2023-06-22T10:26:31;4.63;;;2.63;;
67049;SDS011;53955;52.442;13.284;2023-06-22T10:28:57;4.00;;;2.95;;
67049;SDS011;53955;52.442;13.284;2023-06-22T10:31:24;3.65;;;2.95;;
67049;SDS011;53955;52.442;13.284;2023-06-22T10:33:50;4.88;;;3.28;;
67049;SDS011;53955;52.442;13.284;2023-06-22T10:36:18;4.82;;;3.13;;
67049;SDS011;53955;52.442;13.284;2023-06-22T10:38:46;5.05;;;3.45;;
67049;SDS011;53955;52.442;13.284;2023-06-22T10:41:13;5.53;;;3.33;;
67049;SDS011;53955;52.442;13.284;2023-06-22T10:43:39;3.63;;;2.92;;
67049;SDS011;53955;52.442;13.284;2023-06-22T10:46:06;5.95;;;3.13;;
67049;SDS011;53955;52.442;13.284;2023-06-22T10:48:33;4.80;;;3.03;;
67049;SDS011;53955;52.442;13.284;2023-06-22T10:51:00;5.00;;;3.03;;
67049;SDS011;53955;52.442;13.284;2023-06-22T10:53:26;3.58;;;2.60;;
67049;SDS011;53955;52.442;13.284;2023-06-22T10:55:54;8.40;;;3.67;;
67049;SDS011;53955;52.442;13.284;2023-06-22T10:58:20;4.03;;;2.88;;
67049;SDS011;53955;52.442;13.284;2023-06-22T11:00:47;5.68;;;2.85;;
67049;SDS011;53955;52.442;13.284;2023-06-22T11:03:13;4.65;;;2.70;;
67049;SDS011;53955;52.442;13.284;2023-06-22T11:05:40;6.45;;;2.95;;
67049;SDS011;53955;52.442;13.284;2023-06-22T11:08:07;4.65;;;3.35;;
67049;SDS011;53955;52.442;13.284;2023-06-22T11:10:33;4.95;;;3.20;;
67049;SDS011;53955;52.442;13.284;2023-06-22T11:13:01;4.75;;;2.95;;
67049;SDS011;53955;52.442;13.284;2023-06-22T11:15:29;4.40;;;3.28;;
67049;SDS011;53955;52.442;13.284;2023-06-22T11:17:55;5.78;;;3.00;;
67049;SDS011;53955;52.442;13.284;2023-06-22T11:20:22;4.57;;;2.85;;
67049;SDS011;53955;52.442;13.284;2023-06-22T11:22:48;3.90;;;2.63;;
67049;SDS011;53955;52.442;13.284;2023-06-22T11:25:15;7.22;;;3.22;;
67049;SDS011;53955;52.442;13.284;2023-06-22T11:27:41;5.35;;;3.58;;
67049;SDS011;53955;52.442;13.284;2023-06-22T11:30:10;3.90;;;3.03;;
67049;SDS011;53955;52.442;13.284;2023-06-22T11:32:36;4.97;;;3.20;;
67049;SDS011;53955;52.442;13.284;2023-06-22T11:35:03;5.90;;;3.05;;
67049;SDS011;53955;52.442;13.284;2023-06-22T11:37:30;4.72;;;3.00;;
67049;SDS011;53955;52.442;13.284;2023-06-22T11:39:57;4.60;;;3.33;;
67049;SDS011;53955;52.442;13.284;2023-06-22T11:42:23;4.75;;;3.17;;
67049;SDS011;53955;52.442;13.284;2023-06-22T11:44:50;4.30;;;2.60;;
67049;SDS011;53955;52.442;13.284;2023-06-22T11:47:18;4.60;;;3.20;;
67049;SDS011;53955;52.442;13.284;2023-06-22T11:49:45;6.25;;;3.42;;
67049;SDS011;53955;52.442;13.284;2023-06-22T11:52:11;5.05;;;3.30;;
67049;SDS011;53955;52.442;13.284;2023-06-22T11:54:38;5.22;;;3.13;;
67049;SDS011;53955;52.442;13.284;2023-06-22T11:57:04;5.47;;;3.50;;
67049;SDS011;53955;52.442;13.284;2023-06-22T11:59:31;5.13;;;3.30;;
67049;SDS011;53955;52.442;13.284;2023-06-22T12:01:57;4.32;;;3.28;;
67049;SDS011;53955;52.442;13.284;2023-06-22T12:04:25;4.68;;;3.00;;
67049;SDS011;53955;52.442;13.284;2023-06-22T12:06:52;4.57;;;2.88;;
67049;SDS011;53955;52.442;13.284;2023-06-22T12:09:18;4.75;;;3.15;;
67049;SDS011;53955;52.442;13.284;2023-06-22T12:11:45;6.40;;;3.30;;
67049;SDS011;53955;52.442;13.284;2023-06-22T12:14:11;4.93;;;3.20;;
67049;SDS011;53955;52.442;13.284;2023-06-22T12:16:38;4.53;;;3.22;;
67049;SDS011;53955;52.442;13.284;2023-06-22T12:19:04;4.70;;;3.28;;
67049;SDS011;53955;52.442;13.284;2023-06-22T12:21:32;7.07;;;3.33;;
67049;SDS011;53955;52.442;13.284;2023-06-22T12:23:59;5.80;;;3.50;;
67049;SDS011;53955;52.442;13.284;2023-06-22T12:26:25;5.97;;;3.63;;
67049;SDS011;53955;52.442;13.284;2023-06-22T12:28:52;4.63;;;3.22;;
67049;SDS011;53955;52.442;13.284;2023-06-22T12:31:18;4.85;;;3.30;;
67049;SDS011;53955;52.442;13.284;2023-06-22T12:33:45;5.25;;;3.10;;
67049;SDS011;53955;52.442;13.284;2023-06-22T12:36:12;4.63;;;3.20;;
67049;SDS011;53955;52.442;13.284;2023-06-22T12:38:39;5.90;;;3.40;;
67049;SDS011;53955;52.442;13.284;2023-06-22T12:41:06;6.68;;;3.83;;
67049;SDS011;53955;52.442;13.284;2023-06-22T12:43:32;6.57;;;3.38;;
67049;SDS011;53955;52.442;13.284;2023-06-22T12:45:59;5.00;;;3.55;;
67049;SDS011;53955;52.442;13.284;2023-06-22T12:48:26;4.65;;;3.40;;
67049;SDS011;53955;52.442;13.284;2023-06-22T12:50:53;5.32;;;3.53;;
67049;SDS011;53955;52.442;13.284;2023-06-22T12:53:20;4.13;;;3.13;;
67049;SDS011;53955;52.442;13.284;2023-06-22T12:55:48;5.65;;;3.72;;
67049;SDS011;53955;52.442;13.284;2023-06-22T12:58:15;5.63;;;3.28;;
67049;SDS011;53955;52.442;13.284;2023-06-22T13:00:42;4.97;;;3.38;;
67049;SDS011;53955;52.442;13.284;2023-06-22T13:03:08;7.00;;;3.67;;
67049;SDS011;53955;52.442;13.284;2023-06-22T13:05:35;5.60;;;3.60;;
67049;SDS011;53955;52.442;13.284;2023-06-22T13:08:01;5.32;;;3.78;;
67049;SDS011;53955;52.442;13.284;2023-06-22T13:10:28;4.50;;;3.45;;
67049;SDS011;53955;52.442;13.284;2023-06-22T13:12:56;5.63;;;3.75;;
67049;SDS011;53955;52.442;13.284;2023-06-22T13:15:25;6.18;;;3.42;;
67049;SDS011;53955;52.442;13.284;2023-06-22T13:17:52;7.65;;;3.80;;
67049;SDS011;53955;52.442;13.284;2023-06-22T13:20:19;5.43;;;3.90;;
67049;SDS011;53955;52.442;13.284;2023-06-22T13:22:45;4.97;;;3.70;;
67049;SDS011;53955;52.442;13.284;2023-06-22T13:25:12;5.93;;;3.65;;
67049;SDS011;53955;52.442;13.284;2023-06-22T13:27:43;5.28;;;3.40;;
67049;SDS011;53955;52.442;13.284;2023-06-22T13:30:12;5.50;;;3.65;;
67049;SDS011;53955;52.442;13.284;2023-06-22T13:32:38;6.15;;;3.67;;
67049;SDS011;53955;52.442;13.284;2023-06-22T13:35:06;5.05;;;3.60;;
67049;SDS011;53955;52.442;13.284;2023-06-22T13:37:33;6.53;;;3.47;;
67049;SDS011;53955;52.442;13.284;2023-06-22T13:40:00;6.18;;;3.78;;
67049;SDS011;53955;52.442;13.284;2023-06-22T13:42:30;7.18;;;3.90;;
67049;SDS011;53955;52.442;13.284;2023-06-22T13:44:56;5.93;;;3.72;;
67049;SDS011;53955;52.442;13.284;2023-06-22T13:47:24;5.40;;;4.18;;
67049;SDS011;53955;52.442;13.284;2023-06-22T13:49:51;4.82;;;3.80;;
67049;SDS011;53955;52.442;13.284;2023-06-22T13:52:17;4.65;;;3.58;;
67049;SDS011;53955;52.442;13.284;2023-06-22T13:54:44;5.20;;;3.75;;
67049;SDS011;53955;52.442;13.284;2023-06-22T13:57:10;5.35;;;3.72;;
67049;SDS011;53955;52.442;13.284;2023-06-22T13:59:37;4.78;;;3.70;;
67049;SDS011;53955;52.442;13.284;2023-06-22T14:02:04;6.93;;;3.83;;
67049;SDS011;53955;52.442;13.284;2023-06-22T14:04:32;6.80;;;4.05;;
67049;SDS011;53955;52.442;13.284;2023-06-22T14:06:58;5.03;;;3.88;;
67049;SDS011;53955;52.442;13.284;2023-06-22T14:09:25;5.72;;;3.80;;
67049;SDS011;53955;52.442;13.284;2023-06-22T14:11:53;5.95;;;4.20;;
67049;SDS011;53955;52.442;13.284;2023-06-22T14:14:20;13.32;;;4.78;;
67049;SDS011;53955;52.442;13.284;2023-06-22T14:16:47;7.53;;;4.20;;
67049;SDS011;53955;52.442;13.284;2023-06-22T14:19:16;7.28;;;3.83;;
67049;SDS011;53955;52.442;13.284;2023-06-22T14:21:44;5.13;;;3.78;;
67049;SDS011;53955;52.442;13.284;2023-06-22T14:24:11;7.68;;;3.58;;
67049;SDS011;53955;52.442;13.284;2023-06-22T14:26:38;5.65;;;4.15;;
67049;SDS011;53955;52.442;13.284;2023-06-22T14:29:04;5.97;;;4.32;;
67049;SDS011;53955;52.442;13.284;2023-06-22T14:31:31;7.07;;;4.00;;